^^

METAR Reports

 

KTHV - York, Pennsylvania, USA
Distance from station: NW 5mi, 8km
Updated: Sun, 05-Dec-2021 11:53am EST
Clear
Clear
 Wind from ESE
Wind: ESE 7 mph , 11 km/h
Temperature: 48°F , 9°C
Wind Chill: 45°F , 7°C
Dew Point: 21°F , -6°C
Humidity: 34%
Barometer: 30.33 inHg , 1027.1 hPa
Clouds: Clear
Visibility: 10 miles , 16 km
2021/12/05 16:53 KTHV 051653Z AUTO 12006KT 10SM CLR 09/M06 A3033 RMK AO2 SLP278 T00941056 $
KMDT - Middletown, Pennsylvania, USA
Distance from station: NNW 20mi, 32km
Updated: Sun, 05-Dec-2021 11:56am EST
Mostly cloudy
Mostly cloudy
 Wind from SE
Wind: SE 5 mph , 7 km/h
Temperature: 46°F , 8°C
Wind Chill: 44°F , 7°C
Dew Point: 23°F , -5°C
Humidity: 40%
Barometer: 30.34 inHg , 1027.4 hPa
Clouds: Mostly cloudy
Visibility: 10 miles , 16 km
Cloud details: Mostly cloudy 25000 ft
2021/12/05 16:56 KMDT 051656Z 14004KT 10SM BKN250 08/M05 A3034 RMK AO2 SLP276 T00831050
 
KLNS - Lancaster, Pennsylvania, USA
Distance from station: N 34mi, 55km
Updated: Sun, 05-Dec-2021 11:53am EST
Clear
Clear
 Wind from SSE
Wind: SSE 5 mph , 7 km/h
Temperature: 46°F , 8°C
Wind Chill: 44°F , 7°C
Dew Point: 25°F , -4°C
Humidity: 43%
Barometer: 30.35 inHg , 1027.8 hPa
Clouds: Clear
Visibility: 10 miles , 16 km
2021/12/05 16:53 KLNS 051653Z 15004KT 10SM CLR 08/M04 A3035 RMK AO2 SLP281 T00781039
KBWI - Baltrimore - Washington, Maryland, USA
Distance from station: S 52mi, 84km
Updated: Sun, 05-Dec-2021 11:54am EST
Partly cloudy
Partly cloudy
 Wind from E
Wind: E 9 mph , 15 km/h
Temperature: 52°F , 11°C
Dew Point: 23°F , -5°C
Humidity: 32%
Barometer: 30.36 inHg , 1028.1 hPa
Clouds: Partly cloudy
Visibility: 10 miles , 16 km
Cloud details: Partly cloudy 8500 ft
Partly cloudy 25000 ft
2021/12/05 16:54 KBWI 051654Z 08008KT 10SM SCT085 SCT250 11/M05 A3036 RMK AO2 SLP282 T01061050
 
KMQS - Coatesville, Pennsylvania, USA
Distance from station: NE 54mi, 86km
Updated: Sun, 05-Dec-2021 12:35pm EST
Clear
Clear
 Wind from calm
Wind: Calm
Temperature: 48°F , 9°C
Dew Point: 21°F , -6°C
Humidity: 34%
Barometer: 30.34 inHg , 1027.4 hPa
Clouds: Clear
Visibility: 10 miles , 16 km
2021/12/05 17:35 KMQS 051735Z AUTO 00000KT 10SM CLR 09/M06 A3034 RMK AO2
KGAI - Gaithersburg, Maryland, USA
Distance from station: SW 54mi, 86km
Updated: Sun, 05-Dec-2021 11:56am EST
Overcast
Overcast
 Wind from ESE
Wind: ESE 6 mph , 9 km/h
Temperature: 48°F , 9°C
Wind Chill: 45°F , 7°C
Dew Point: 21°F , -6°C
Humidity: 34%
Barometer: 30.35 inHg , 1027.8 hPa
Clouds: Overcast
Visibility: 10 miles , 16 km
Cloud details: Overcast 8000 ft
2021/12/05 16:56 KGAI 051656Z AUTO 11005KT 10SM OVC080 09/M06 A3035 RMK AO2 SLP295 T00941056
 
KFME - Fort Meade, Maryland, USA
Distance from station: SSW 58mi, 93km
Updated: Sun, 05-Dec-2021 12:35pm EST
Overcast
Overcast
 Wind from ESE
Wind: ESE 7 mph , 11 km/h
Temperature: 48°F , 9°C
Wind Chill: 45°F , 7°C
Dew Point: 27°F , -3°C
Humidity: 43%
Barometer: 30.37 inHg , 1028.4 hPa
Clouds: Overcast
Visibility: 10 miles , 16 km
Cloud details: Overcast 8500 ft
2021/12/05 17:35 KFME 051735Z AUTO 11006KT 10SM OVC085 09/M03 A3037 RMK AO1
KCGS - College Park, Maryland, USA
Distance from station: SW 65mi, 104km
Updated: Sun, 05-Dec-2021 12:35pm EST
Overcast
Overcast
 Wind from SE
Wind: SE 3 mph , 6 km/h
Temperature: 50°F , 10°C
Dew Point: 19°F , -7°C
Humidity: 30%
Barometer: 30.34 inHg , 1027.4 hPa
Clouds: Overcast
Visibility: 10 miles , 16 km
Cloud details: Overcast 8500 ft
2021/12/05 17:35 KCGS 051735Z AUTO 13003KT 10SM OVC085 10/M07 A3034 RMK AO1 T00951072
 
KILG - Wilmington, Delaware, USA
Distance from station: E 69mi, 111km
Updated: Sun, 05-Dec-2021 11:51am EST
Clear
Clear
 Wind from E
Wind: E 6 mph , 9 km/h
Temperature: 48°F , 9°C
Wind Chill: 45°F , 7°C
Dew Point: 25°F , -4°C
Humidity: 40%
Barometer: 30.39 inHg , 1029.1 hPa
Clouds: Clear
Visibility: 10 miles , 16 km
2021/12/05 16:51 KILG 051651Z 10005KT 10SM CLR 09/M04 A3039 RMK AO2 SLP289 T00941039 $
KW29 - Stevensville, Maryland, USA
Distance from station: S 71mi, 114km
Updated: Sun, 28-Mar-2021 8:55am EDT
NOT Current
Nearby thunderstorm, Rain, Mist, Overcast
Nearby thunderstorm, Rain, Mist, Overcast
 Wind from ESE
Wind: ESE 6 mph , 9 km/h
Temperature: 57°F , 14°C
Barometer: 29.84 inHg , 1010.5 hPa
Summary: Nearby thunderstorm, Rain, Mist
Clouds: Overcast
Visibility: 2 miles , 3 km
Cloud details: Overcast 300 ft
2021/03/28 12:55 KW29 281255Z AUTO 12005KT 2SM VCTSRA BR OVC003 14/ A2984 RMK AO2 LTG DSNT S AND W
 
KAGC - Pittsburgh (Allegheny County), Pennsylvania, USA
Distance from station: W 164mi, 265km
Updated: Sun, 05-Dec-2021 11:53am EST
Overcast
Overcast
 Wind from E
Wind: E 8 mph , 13 km/h
Temperature: 43°F , 6°C
Wind Chill: 38°F , 3°C
Dew Point: 23°F , -5°C
Humidity: 46%
Barometer: 30.14 inHg , 1020.7 hPa
Clouds: Overcast
Visibility: 10 miles , 16 km
Cloud details: Overcast 6000 ft
2021/12/05 16:53 KAGC 051653Z 09007KT 10SM OVC060 06/M05 A3014 RMK AO2 PRESFR SLP219 T00611050
KPIT - Pittsburgh, Pennsylvania, USA
Distance from station: W 182mi, 293km
Updated: Sun, 05-Dec-2021 11:51am EST
Overcast
Overcast
 Wind from E
Wind: E 8 mph , 13 km/h
Temperature: 41°F , 5°C
Wind Chill: 36°F , 2°C
Dew Point: 21°F , -6°C
Humidity: 45%
Barometer: 30.14 inHg , 1020.7 hPa
Clouds: Overcast
Visibility: 10 miles , 16 km
Cloud details: Partly cloudy 6500 ft
Partly cloudy 9500 ft
Overcast 22000 ft
2021/12/05 16:51 KPIT 051651Z 09007KT 10SM SCT065 SCT095 OVC220 05/M06 A3014 RMK AO2 PRESFR SLP224 T00501056
 
KFFO - Wright Patterson AFB, Ohio, USA
Distance from station: W 381mi, 613km
Updated: Sun, 05-Dec-2021 12:06pm EST
Overcast
Overcast
 Wind from SE
Wind: SE 8 mph , 13 km/h
Temperature: 46°F , 8°C
Wind Chill: 42°F , 6°C
Dew Point: 21°F , -6°C
Humidity: 37%
Barometer: 30.02 inHg , 1016.6 hPa
Clouds: Overcast
Visibility: 10 miles , 16 km
Cloud details: Mostly cloudy 2700 ft
Overcast 3200 ft
2021/12/05 17:06 KFFO 051706Z AUTO 14007KT 10SM BKN027 OVC032 08/M06 A3002 RMK AO2 CIG 027V032 SLP175
KDAY - Dayton, Ohio, USA
Distance from station: W 390mi, 628km
Updated: Sun, 05-Dec-2021 12:09pm EST
Overcast
Overcast
 Wind from SE
Wind: SE 16 mph , 26 km/h
Temperature: 46°F , 8°C
Wind Chill: 39°F , 4°C
Dew Point: 25°F , -4°C
Humidity: 43%
Barometer: 30.01 inHg , 1016.3 hPa
Clouds: Overcast
Visibility: 10 miles , 16 km
Cloud details: Mostly cloudy 2500 ft
Overcast 25000 ft
2021/12/05 17:09 KDAY 051709Z 14014KT 10SM BKN025 OVC250 08/M04 A3001 RMK AO2 T00781044
 
KATL - Hartsfield Atlanta, Georgia, USA
Distance from station: S 602mi, 969km
Updated: Sun, 05-Dec-2021 11:52am EST
Haze, Overcast
Haze, Overcast
 Wind from E
Wind: E 6 mph , 9 km/h
Temperature: 61°F , 16°C
Dew Point: 55°F , 13°C
Humidity: 83%
Barometer: 30.17 inHg , 1021.7 hPa
Summary: Haze
Clouds: Overcast
Visibility: 6 miles , 10 km
Cloud details: Partly cloudy 2600 ft
Mostly cloudy 3200 ft
Overcast 5000 ft
2021/12/05 16:52 KATL 051652Z 08005KT 6SM HZ SCT026 BKN032 OVC050 16/13 A3017 RMK AO2 SLP213 T01560128 $
KBHM - Birmingham, Alabama, USA
Distance from station: SSW 701mi, 1,128km
Updated: Sun, 05-Dec-2021 11:53am EST
Mostly cloudy
Mostly cloudy
 Wind from SW
Wind: SW 8 mph , 13 km/h
Temperature: 72°F , 22°C
Dew Point: 63°F , 17°C
Humidity: 73%
Barometer: 30.12 inHg , 1020 hPa
Clouds: Mostly cloudy
Visibility: 7 miles , 11 km
Cloud details: Mostly cloudy 2500 ft
2021/12/05 16:53 KBHM 051653Z 23007KT 7SM BKN025 22/17 A3012 RMK AO2 SLP183 T02220172 $